sensor_id;sensor_type;location;lat;lon;timestamp;P1;durP1;ratioP1;P2;durP2;ratioP2
6983;SDS011;3532;51.118;7.210;2023-04-05T00:00:48;6.57;;;5.23;;
6983;SDS011;3532;51.118;7.210;2023-04-05T00:03:14;6.07;;;4.80;;
6983;SDS011;3532;51.118;7.210;2023-04-05T00:05:41;7.40;;;4.95;;
6983;SDS011;3532;51.118;7.210;2023-04-05T00:08:07;6.63;;;5.43;;
6983;SDS011;3532;51.118;7.210;2023-04-05T00:10:37;6.43;;;4.85;;
6983;SDS011;3532;51.118;7.210;2023-04-05T00:13:03;7.67;;;4.80;;
6983;SDS011;3532;51.118;7.210;2023-04-05T00:15:28;6.67;;;5.20;;
6983;SDS011;3532;51.118;7.210;2023-04-05T00:17:55;5.78;;;4.60;;
6983;SDS011;3532;51.118;7.210;2023-04-05T00:20:21;8.90;;;5.17;;
6983;SDS011;3532;51.118;7.210;2023-04-05T00:22:46;6.07;;;5.30;;
6983;SDS011;3532;51.118;7.210;2023-04-05T00:25:14;5.27;;;4.53;;
6983;SDS011;3532;51.118;7.210;2023-04-05T00:27:43;5.67;;;4.80;;
6983;SDS011;3532;51.118;7.210;2023-04-05T00:30:09;4.65;;;4.20;;
6983;SDS011;3532;51.118;7.210;2023-04-05T00:32:35;10.70;;;5.17;;
6983;SDS011;3532;51.118;7.210;2023-04-05T00:35:00;6.13;;;4.77;;
6983;SDS011;3532;51.118;7.210;2023-04-05T00:37:26;5.77;;;4.30;;
6983;SDS011;3532;51.118;7.210;2023-04-05T00:39:51;6.07;;;4.80;;
6983;SDS011;3532;51.118;7.210;2023-04-05T00:42:17;5.85;;;4.60;;
6983;SDS011;3532;51.118;7.210;2023-04-05T00:44:43;6.83;;;5.17;;
6983;SDS011;3532;51.118;7.210;2023-04-05T00:47:08;4.97;;;4.57;;
6983;SDS011;3532;51.118;7.210;2023-04-05T00:49:34;5.33;;;4.73;;
6983;SDS011;3532;51.118;7.210;2023-04-05T00:52:00;8.15;;;5.05;;
6983;SDS011;3532;51.118;7.210;2023-04-05T00:54:26;8.47;;;4.73;;
6983;SDS011;3532;51.118;7.210;2023-04-05T00:56:54;6.18;;;4.20;;
6983;SDS011;3532;51.118;7.210;2023-04-05T00:59:20;6.03;;;4.20;;
6983;SDS011;3532;51.118;7.210;2023-04-05T01:01:45;5.77;;;4.73;;
6983;SDS011;3532;51.118;7.210;2023-04-05T01:04:29;6.83;;;4.33;;
6983;SDS011;3532;51.118;7.210;2023-04-05T01:07:01;5.88;;;5.00;;
6983;SDS011;3532;51.118;7.210;2023-04-05T01:12:23;5.13;;;4.53;;
6983;SDS011;3532;51.118;7.210;2023-04-05T01:14:53;6.57;;;4.68;;
6983;SDS011;3532;51.118;7.210;2023-04-05T01:17:20;5.90;;;4.95;;
6983;SDS011;3532;51.118;7.210;2023-04-05T01:19:47;6.37;;;5.07;;
6983;SDS011;3532;51.118;7.210;2023-04-05T01:30:40;7.10;;;4.23;;
6983;SDS011;3532;51.118;7.210;2023-04-05T01:35:58;4.83;;;4.33;;
6983;SDS011;3532;51.118;7.210;2023-04-05T01:38:27;6.97;;;4.10;;
6983;SDS011;3532;51.118;7.210;2023-04-05T01:40:54;5.28;;;4.68;;
6983;SDS011;3532;51.118;7.210;2023-04-05T01:43:19;6.63;;;4.57;;
6983;SDS011;3532;51.118;7.210;2023-04-05T01:45:45;5.47;;;4.40;;
6983;SDS011;3532;51.118;7.210;2023-04-05T01:48:11;6.00;;;4.57;;
6983;SDS011;3532;51.118;7.210;2023-04-05T01:50:36;5.57;;;4.30;;
6983;SDS011;3532;51.118;7.210;2023-04-05T01:53:02;8.77;;;4.43;;
6983;SDS011;3532;51.118;7.210;2023-04-05T01:55:27;5.10;;;4.60;;
6983;SDS011;3532;51.118;7.210;2023-04-05T01:57:53;5.47;;;4.33;;
6983;SDS011;3532;51.118;7.210;2023-04-05T02:00:19;5.15;;;4.53;;
6983;SDS011;3532;51.118;7.210;2023-04-05T02:02:45;5.73;;;5.17;;
6983;SDS011;3532;51.118;7.210;2023-04-05T02:05:11;5.97;;;5.37;;
6983;SDS011;3532;51.118;7.210;2023-04-05T02:07:36;6.53;;;4.57;;
6983;SDS011;3532;51.118;7.210;2023-04-05T02:10:02;5.83;;;4.53;;
6983;SDS011;3532;51.118;7.210;2023-04-05T02:12:27;5.10;;;4.60;;
6983;SDS011;3532;51.118;7.210;2023-04-05T02:14:52;6.50;;;4.53;;
6983;SDS011;3532;51.118;7.210;2023-04-05T02:17:18;5.77;;;4.73;;
6983;SDS011;3532;51.118;7.210;2023-04-05T02:19:43;7.03;;;4.77;;
6983;SDS011;3532;51.118;7.210;2023-04-05T02:22:11;4.75;;;4.15;;
6983;SDS011;3532;51.118;7.210;2023-04-05T02:24:37;7.03;;;4.47;;
6983;SDS011;3532;51.118;7.210;2023-04-05T02:27:02;5.37;;;4.70;;
6983;SDS011;3532;51.118;7.210;2023-04-05T02:29:27;6.53;;;4.00;;
6983;SDS011;3532;51.118;7.210;2023-04-05T02:31:53;4.93;;;4.03;;
6983;SDS011;3532;51.118;7.210;2023-04-05T02:34:18;6.20;;;4.93;;
6983;SDS011;3532;51.118;7.210;2023-04-05T02:36:44;5.10;;;4.57;;
6983;SDS011;3532;51.118;7.210;2023-04-05T02:39:09;5.97;;;4.67;;
6983;SDS011;3532;51.118;7.210;2023-04-05T02:41:35;6.17;;;4.50;;
6983;SDS011;3532;51.118;7.210;2023-04-05T02:44:00;8.10;;;4.23;;
6983;SDS011;3532;51.118;7.210;2023-04-05T02:46:26;4.90;;;4.27;;
6983;SDS011;3532;51.118;7.210;2023-04-05T02:48:52;6.30;;;4.37;;
6983;SDS011;3532;51.118;7.210;2023-04-05T02:51:17;5.40;;;4.70;;
6983;SDS011;3532;51.118;7.210;2023-04-05T02:53:42;5.97;;;4.40;;
6983;SDS011;3532;51.118;7.210;2023-04-05T02:56:08;7.00;;;4.72;;
6983;SDS011;3532;51.118;7.210;2023-04-05T02:58:35;5.13;;;4.30;;
6983;SDS011;3532;51.118;7.210;2023-04-05T03:01:01;4.93;;;4.37;;
6983;SDS011;3532;51.118;7.210;2023-04-05T03:03:31;5.95;;;4.95;;
6983;SDS011;3532;51.118;7.210;2023-04-05T03:05:58;6.38;;;4.40;;
6983;SDS011;3532;51.118;7.210;2023-04-05T03:08:25;5.13;;;4.68;;
6983;SDS011;3532;51.118;7.210;2023-04-05T03:10:52;4.85;;;4.35;;
6983;SDS011;3532;51.118;7.210;2023-04-05T03:13:18;5.10;;;4.60;;
6983;SDS011;3532;51.118;7.210;2023-04-05T03:15:43;4.93;;;4.53;;
6983;SDS011;3532;51.118;7.210;2023-04-05T03:18:09;6.53;;;4.50;;
6983;SDS011;3532;51.118;7.210;2023-04-05T03:20:34;6.10;;;4.87;;
6983;SDS011;3532;51.118;7.210;2023-04-05T03:23:09;5.18;;;4.30;;
6983;SDS011;3532;51.118;7.210;2023-04-05T03:25:35;4.83;;;4.33;;
6983;SDS011;3532;51.118;7.210;2023-04-05T03:28:05;5.53;;;4.53;;
6983;SDS011;3532;51.118;7.210;2023-04-05T03:30:32;5.57;;;4.65;;
6983;SDS011;3532;51.118;7.210;2023-04-05T03:32:58;6.83;;;4.60;;
6983;SDS011;3532;51.118;7.210;2023-04-05T03:35:27;5.22;;;4.70;;
6983;SDS011;3532;51.118;7.210;2023-04-05T03:37:53;5.03;;;4.53;;
6983;SDS011;3532;51.118;7.210;2023-04-05T03:40:19;5.07;;;4.57;;
6983;SDS011;3532;51.118;7.210;2023-04-05T03:42:44;6.83;;;4.70;;
6983;SDS011;3532;51.118;7.210;2023-04-05T03:45:10;5.53;;;4.10;;
6983;SDS011;3532;51.118;7.210;2023-04-05T03:47:35;7.90;;;4.77;;
6983;SDS011;3532;51.118;7.210;2023-04-05T03:50:01;6.63;;;4.40;;
6983;SDS011;3532;51.118;7.210;2023-04-05T03:52:27;5.30;;;4.80;;
6983;SDS011;3532;51.118;7.210;2023-04-05T03:54:53;5.90;;;5.00;;
6983;SDS011;3532;51.118;7.210;2023-04-05T03:57:18;5.33;;;4.67;;
6983;SDS011;3532;51.118;7.210;2023-04-05T03:59:43;5.10;;;4.70;;
6983;SDS011;3532;51.118;7.210;2023-04-05T04:02:09;5.27;;;4.43;;
6983;SDS011;3532;51.118;7.210;2023-04-05T04:04:34;6.43;;;5.07;;
6983;SDS011;3532;51.118;7.210;2023-04-05T04:06:59;5.23;;;4.73;;
6983;SDS011;3532;51.118;7.210;2023-04-05T04:09:24;6.97;;;4.87;;
6983;SDS011;3532;51.118;7.210;2023-04-05T04:11:52;5.50;;;4.90;;
6983;SDS011;3532;51.118;7.210;2023-04-05T04:14:17;5.20;;;4.70;;
6983;SDS011;3532;51.118;7.210;2023-04-05T04:16:42;6.67;;;5.23;;
6983;SDS011;3532;51.118;7.210;2023-04-05T04:19:07;6.70;;;4.30;;
6983;SDS011;3532;51.118;7.210;2023-04-05T04:21:33;5.87;;;4.07;;
6983;SDS011;3532;51.118;7.210;2023-04-05T04:23:59;4.50;;;4.10;;
6983;SDS011;3532;51.118;7.210;2023-04-05T04:26:25;6.73;;;4.60;;
6983;SDS011;3532;51.118;7.210;2023-04-05T04:28:53;5.10;;;4.45;;
6983;SDS011;3532;51.118;7.210;2023-04-05T04:31:19;6.88;;;5.82;;
6983;SDS011;3532;51.118;7.210;2023-04-05T04:33:50;5.78;;;4.82;;
6983;SDS011;3532;51.118;7.210;2023-04-05T04:36:16;5.13;;;4.43;;
6983;SDS011;3532;51.118;7.210;2023-04-05T04:38:42;6.63;;;5.28;;
6983;SDS011;3532;51.118;7.210;2023-04-05T04:41:12;6.97;;;5.40;;
6983;SDS011;3532;51.118;7.210;2023-04-05T04:43:37;6.57;;;4.57;;
6983;SDS011;3532;51.118;7.210;2023-04-05T04:46:07;7.05;;;5.43;;
6983;SDS011;3532;51.118;7.210;2023-04-05T04:48:34;4.35;;;3.95;;
6983;SDS011;3532;51.118;7.210;2023-04-05T04:51:02;6.03;;;4.18;;
6983;SDS011;3532;51.118;7.210;2023-04-05T04:53:28;5.25;;;4.82;;
6983;SDS011;3532;51.118;7.210;2023-04-05T04:55:53;5.27;;;4.77;;
6983;SDS011;3532;51.118;7.210;2023-04-05T04:58:20;5.10;;;4.60;;
6983;SDS011;3532;51.118;7.210;2023-04-05T05:00:45;10.20;;;5.57;;
6983;SDS011;3532;51.118;7.210;2023-04-05T05:03:11;5.60;;;4.67;;
6983;SDS011;3532;51.118;7.210;2023-04-05T05:05:44;5.70;;;4.30;;
6983;SDS011;3532;51.118;7.210;2023-04-05T05:08:10;6.53;;;4.60;;
6983;SDS011;3532;51.118;7.210;2023-04-05T05:10:36;5.70;;;4.38;;
6983;SDS011;3532;51.118;7.210;2023-04-05T05:13:02;8.83;;;5.47;;
6983;SDS011;3532;51.118;7.210;2023-04-05T05:15:27;6.53;;;5.40;;
6983;SDS011;3532;51.118;7.210;2023-04-05T05:17:53;8.67;;;4.77;;
6983;SDS011;3532;51.118;7.210;2023-04-05T05:20:22;6.00;;;4.53;;
6983;SDS011;3532;51.118;7.210;2023-04-05T05:22:48;4.97;;;4.45;;
6983;SDS011;3532;51.118;7.210;2023-04-05T05:25:13;5.23;;;4.73;;
6983;SDS011;3532;51.118;7.210;2023-04-05T05:27:39;6.10;;;5.00;;
6983;SDS011;3532;51.118;7.210;2023-04-05T05:30:05;6.15;;;5.00;;
6983;SDS011;3532;51.118;7.210;2023-04-05T05:32:31;4.70;;;4.23;;
6983;SDS011;3532;51.118;7.210;2023-04-05T05:34:56;7.17;;;4.40;;
6983;SDS011;3532;51.118;7.210;2023-04-05T05:37:28;5.33;;;4.83;;
6983;SDS011;3532;51.118;7.210;2023-04-05T05:39:54;7.13;;;4.65;;
6983;SDS011;3532;51.118;7.210;2023-04-05T05:42:20;4.83;;;4.03;;
6983;SDS011;3532;51.118;7.210;2023-04-05T05:44:45;6.47;;;5.00;;
6983;SDS011;3532;51.118;7.210;2023-04-05T05:47:10;6.97;;;5.07;;
6983;SDS011;3532;51.118;7.210;2023-04-05T05:49:36;5.13;;;4.67;;
6983;SDS011;3532;51.118;7.210;2023-04-05T05:52:02;6.00;;;4.50;;
6983;SDS011;3532;51.118;7.210;2023-04-05T05:54:27;6.53;;;4.57;;
6983;SDS011;3532;51.118;7.210;2023-04-05T05:56:52;6.60;;;4.97;;
6983;SDS011;3532;51.118;7.210;2023-04-05T05:59:18;5.30;;;4.77;;
6983;SDS011;3532;51.118;7.210;2023-04-05T06:01:43;6.17;;;5.20;;
6983;SDS011;3532;51.118;7.210;2023-04-05T06:04:10;6.00;;;5.20;;
6983;SDS011;3532;51.118;7.210;2023-04-05T06:06:38;5.68;;;4.88;;
6983;SDS011;3532;51.118;7.210;2023-04-05T06:09:06;6.75;;;5.65;;
6983;SDS011;3532;51.118;7.210;2023-04-05T06:11:32;4.87;;;4.47;;
6983;SDS011;3532;51.118;7.210;2023-04-05T06:13:57;6.37;;;5.13;;
6983;SDS011;3532;51.118;7.210;2023-04-05T06:16:22;5.70;;;4.97;;
6983;SDS011;3532;51.118;7.210;2023-04-05T06:18:48;8.93;;;5.47;;
6983;SDS011;3532;51.118;7.210;2023-04-05T06:21:13;6.13;;;4.97;;
6983;SDS011;3532;51.118;7.210;2023-04-05T06:23:40;7.30;;;5.07;;
6983;SDS011;3532;51.118;7.210;2023-04-05T06:26:06;4.75;;;4.25;;
6983;SDS011;3532;51.118;7.210;2023-04-05T06:28:32;4.73;;;4.33;;
6983;SDS011;3532;51.118;7.210;2023-04-05T06:30:57;5.17;;;4.67;;
6983;SDS011;3532;51.118;7.210;2023-04-05T06:33:23;5.27;;;4.63;;
6983;SDS011;3532;51.118;7.210;2023-04-05T06:35:48;6.67;;;4.60;;
6983;SDS011;3532;51.118;7.210;2023-04-05T06:38:13;5.50;;;4.63;;
6983;SDS011;3532;51.118;7.210;2023-04-05T06:40:39;8.80;;;4.97;;
6983;SDS011;3532;51.118;7.210;2023-04-05T06:43:04;6.03;;;4.80;;
6983;SDS011;3532;51.118;7.210;2023-04-05T06:45:30;6.77;;;4.90;;
6983;SDS011;3532;51.118;7.210;2023-04-05T06:47:55;10.10;;;5.10;;
6983;SDS011;3532;51.118;7.210;2023-04-05T06:50:21;6.23;;;4.43;;
6983;SDS011;3532;51.118;7.210;2023-04-05T06:52:46;5.43;;;4.37;;
6983;SDS011;3532;51.118;7.210;2023-04-05T06:55:11;6.00;;;4.60;;
6983;SDS011;3532;51.118;7.210;2023-04-05T06:57:36;4.77;;;4.23;;
6983;SDS011;3532;51.118;7.210;2023-04-05T07:00:02;5.10;;;4.70;;
6983;SDS011;3532;51.118;7.210;2023-04-05T07:02:33;5.40;;;4.90;;
6983;SDS011;3532;51.118;7.210;2023-04-05T07:04:58;6.97;;;4.67;;
6983;SDS011;3532;51.118;7.210;2023-04-05T07:07:29;4.90;;;4.37;;
6983;SDS011;3532;51.118;7.210;2023-04-05T07:09:54;5.23;;;4.60;;
6983;SDS011;3532;51.118;7.210;2023-04-05T07:12:20;9.90;;;4.63;;
6983;SDS011;3532;51.118;7.210;2023-04-05T07:14:45;5.77;;;4.50;;
6983;SDS011;3532;51.118;7.210;2023-04-05T07:17:10;6.30;;;5.47;;
6983;SDS011;3532;51.118;7.210;2023-04-05T07:19:36;6.97;;;4.47;;
6983;SDS011;3532;51.118;7.210;2023-04-05T07:22:01;7.47;;;4.57;;
6983;SDS011;3532;51.118;7.210;2023-04-05T07:24:26;4.70;;;4.30;;
6983;SDS011;3532;51.118;7.210;2023-04-05T07:26:52;5.97;;;4.47;;
6983;SDS011;3532;51.118;7.210;2023-04-05T07:29:17;7.77;;;4.87;;
6983;SDS011;3532;51.118;7.210;2023-04-05T07:31:42;5.53;;;4.47;;
6983;SDS011;3532;51.118;7.210;2023-04-05T07:34:08;5.33;;;4.60;;
6983;SDS011;3532;51.118;7.210;2023-04-05T07:36:33;5.70;;;4.23;;
6983;SDS011;3532;51.118;7.210;2023-04-05T07:38:59;7.50;;;4.60;;
6983;SDS011;3532;51.118;7.210;2023-04-05T07:41:26;5.67;;;4.07;;
6983;SDS011;3532;51.118;7.210;2023-04-05T07:43:55;5.80;;;4.20;;
6983;SDS011;3532;51.118;7.210;2023-04-05T07:46:21;4.50;;;3.97;;
6983;SDS011;3532;51.118;7.210;2023-04-05T07:48:46;5.17;;;4.67;;
6983;SDS011;3532;51.118;7.210;2023-04-05T07:51:12;5.43;;;4.30;;
6983;SDS011;3532;51.118;7.210;2023-04-05T07:53:37;5.50;;;4.90;;
6983;SDS011;3532;51.118;7.210;2023-04-05T07:56:04;6.77;;;4.37;;
6983;SDS011;3532;51.118;7.210;2023-04-05T07:58:33;5.97;;;4.77;;
6983;SDS011;3532;51.118;7.210;2023-04-05T08:00:59;5.60;;;4.73;;
6983;SDS011;3532;51.118;7.210;2023-04-05T08:03:28;4.30;;;3.90;;
6983;SDS011;3532;51.118;7.210;2023-04-05T08:05:54;4.90;;;4.17;;
6983;SDS011;3532;51.118;7.210;2023-04-05T08:08:20;6.20;;;4.90;;
6983;SDS011;3532;51.118;7.210;2023-04-05T08:10:46;8.73;;;4.30;;
6983;SDS011;3532;51.118;7.210;2023-04-05T08:13:11;5.00;;;4.27;;
6983;SDS011;3532;51.118;7.210;2023-04-05T08:15:37;5.60;;;4.00;;
6983;SDS011;3532;51.118;7.210;2023-04-05T08:18:02;6.73;;;4.23;;
6983;SDS011;3532;51.118;7.210;2023-04-05T08:20:27;6.00;;;4.63;;
6983;SDS011;3532;51.118;7.210;2023-04-05T08:22:53;4.37;;;3.97;;
6983;SDS011;3532;51.118;7.210;2023-04-05T08:25:18;5.90;;;4.57;;
6983;SDS011;3532;51.118;7.210;2023-04-05T08:27:43;6.13;;;4.57;;
6983;SDS011;3532;51.118;7.210;2023-04-05T08:30:09;7.03;;;4.20;;
6983;SDS011;3532;51.118;7.210;2023-04-05T08:32:34;6.83;;;5.20;;
6983;SDS011;3532;51.118;7.210;2023-04-05T08:35:00;5.23;;;4.63;;
6983;SDS011;3532;51.118;7.210;2023-04-05T08:37:25;5.73;;;4.50;;
6983;SDS011;3532;51.118;7.210;2023-04-05T08:39:51;5.77;;;5.07;;
6983;SDS011;3532;51.118;7.210;2023-04-05T08:42:17;6.50;;;4.57;;
6983;SDS011;3532;51.118;7.210;2023-04-05T08:44:47;5.27;;;4.70;;
6983;SDS011;3532;51.118;7.210;2023-04-05T08:47:17;4.83;;;4.33;;
6983;SDS011;3532;51.118;7.210;2023-04-05T08:49:43;6.10;;;4.77;;
6983;SDS011;3532;51.118;7.210;2023-04-05T08:52:09;4.83;;;4.23;;
6983;SDS011;3532;51.118;7.210;2023-04-05T08:54:35;5.13;;;4.47;;
6983;SDS011;3532;51.118;7.210;2023-04-05T08:57:01;9.40;;;5.40;;
6983;SDS011;3532;51.118;7.210;2023-04-05T08:59:29;6.27;;;4.80;;
6983;SDS011;3532;51.118;7.210;2023-04-05T09:01:56;5.13;;;4.57;;
6983;SDS011;3532;51.118;7.210;2023-04-05T09:04:23;4.70;;;4.07;;
6983;SDS011;3532;51.118;7.210;2023-04-05T09:06:49;4.40;;;4.00;;
6983;SDS011;3532;51.118;7.210;2023-04-05T09:09:16;5.63;;;4.50;;
6983;SDS011;3532;51.118;7.210;2023-04-05T09:11:43;6.23;;;4.53;;
6983;SDS011;3532;51.118;7.210;2023-04-05T09:14:08;8.53;;;4.97;;
6983;SDS011;3532;51.118;7.210;2023-04-05T09:16:39;5.33;;;4.63;;
6983;SDS011;3532;51.118;7.210;2023-04-05T09:19:05;5.70;;;4.63;;
6983;SDS011;3532;51.118;7.210;2023-04-05T09:21:56;5.20;;;4.67;;
6983;SDS011;3532;51.118;7.210;2023-04-05T09:24:35;4.97;;;4.53;;
6983;SDS011;3532;51.118;7.210;2023-04-05T09:27:05;5.20;;;4.70;;
6983;SDS011;3532;51.118;7.210;2023-04-05T09:29:32;6.23;;;5.30;;
6983;SDS011;3532;51.118;7.210;2023-04-05T09:31:59;5.00;;;4.37;;
6983;SDS011;3532;51.118;7.210;2023-04-05T09:34:26;6.17;;;5.47;;
6983;SDS011;3532;51.118;7.210;2023-04-05T09:36:54;5.50;;;4.93;;
6983;SDS011;3532;51.118;7.210;2023-04-05T09:39:20;6.47;;;4.80;;
6983;SDS011;3532;51.118;7.210;2023-04-05T09:44:49;5.87;;;5.07;;
6983;SDS011;3532;51.118;7.210;2023-04-05T09:47:26;9.10;;;6.03;;
6983;SDS011;3532;51.118;7.210;2023-04-05T09:49:56;7.10;;;5.33;;
6983;SDS011;3532;51.118;7.210;2023-04-05T09:52:23;6.50;;;5.67;;
6983;SDS011;3532;51.118;7.210;2023-04-05T09:54:50;9.57;;;6.03;;
6983;SDS011;3532;51.118;7.210;2023-04-05T09:57:16;7.30;;;5.97;;
6983;SDS011;3532;51.118;7.210;2023-04-05T09:59:43;6.47;;;5.87;;
6983;SDS011;3532;51.118;7.210;2023-04-05T10:02:09;7.23;;;6.13;;
6983;SDS011;3532;51.118;7.210;2023-04-05T10:04:39;10.77;;;7.00;;
6983;SDS011;3532;51.118;7.210;2023-04-05T10:07:06;6.33;;;5.27;;
6983;SDS011;3532;51.118;7.210;2023-04-05T10:09:33;6.87;;;5.87;;
6983;SDS011;3532;51.118;7.210;2023-04-05T10:11:58;6.43;;;5.90;;
6983;SDS011;3532;51.118;7.210;2023-04-05T10:14:25;5.77;;;5.27;;
6983;SDS011;3532;51.118;7.210;2023-04-05T10:16:59;6.87;;;5.87;;
6983;SDS011;3532;51.118;7.210;2023-04-05T10:19:35;6.17;;;5.57;;
6983;SDS011;3532;51.118;7.210;2023-04-05T10:22:05;5.67;;;5.17;;
6983;SDS011;3532;51.118;7.210;2023-04-05T10:24:39;6.30;;;5.67;;
6983;SDS011;3532;51.118;7.210;2023-04-05T10:27:13;6.10;;;5.50;;
6983;SDS011;3532;51.118;7.210;2023-04-05T10:29:45;7.90;;;6.13;;
6983;SDS011;3532;51.118;7.210;2023-04-05T10:32:39;12.93;;;5.20;;
6983;SDS011;3532;51.118;7.210;2023-04-05T10:35:09;7.83;;;5.77;;
6983;SDS011;3532;51.118;7.210;2023-04-05T10:40:12;6.93;;;5.00;;
6983;SDS011;3532;51.118;7.210;2023-04-05T10:42:41;7.47;;;5.33;;
6983;SDS011;3532;51.118;7.210;2023-04-05T10:45:11;6.63;;;5.93;;
6983;SDS011;3532;51.118;7.210;2023-04-05T10:47:44;5.97;;;4.73;;
6983;SDS011;3532;51.118;7.210;2023-04-05T10:50:13;6.13;;;5.53;;
6983;SDS011;3532;51.118;7.210;2023-04-05T10:52:44;6.60;;;5.60;;
6983;SDS011;3532;51.118;7.210;2023-04-05T10:55:10;7.47;;;5.90;;
6983;SDS011;3532;51.118;7.210;2023-04-05T10:57:36;7.13;;;5.40;;
6983;SDS011;3532;51.118;7.210;2023-04-05T11:00:02;7.23;;;5.80;;
6983;SDS011;3532;51.118;7.210;2023-04-05T11:02:27;6.43;;;5.83;;
6983;SDS011;3532;51.118;7.210;2023-04-05T11:04:53;6.37;;;5.77;;
6983;SDS011;3532;51.118;7.210;2023-04-05T11:07:20;6.57;;;5.93;;
6983;SDS011;3532;51.118;7.210;2023-04-05T11:18:04;7.43;;;5.73;;
6983;SDS011;3532;51.118;7.210;2023-04-05T11:23:08;6.60;;;5.80;;
6983;SDS011;3532;51.118;7.210;2023-04-05T11:25:38;5.83;;;5.33;;
6983;SDS011;3532;51.118;7.210;2023-04-05T11:28:04;6.03;;;5.50;;
6983;SDS011;3532;51.118;7.210;2023-04-05T11:30:45;6.43;;;5.50;;
6983;SDS011;3532;51.118;7.210;2023-04-05T11:33:11;8.37;;;5.70;;
6983;SDS011;3532;51.118;7.210;2023-04-05T11:36:00;8.17;;;5.60;;
6983;SDS011;3532;51.118;7.210;2023-04-05T11:38:28;7.93;;;5.83;;
6983;SDS011;3532;51.118;7.210;2023-04-05T11:43:41;7.83;;;5.83;;
6983;SDS011;3532;51.118;7.210;2023-04-05T11:46:06;6.77;;;6.07;;
6983;SDS011;3532;51.118;7.210;2023-04-05T11:48:32;6.07;;;5.47;;
6983;SDS011;3532;51.118;7.210;2023-04-05T11:50:58;5.83;;;5.23;;
6983;SDS011;3532;51.118;7.210;2023-04-05T11:53:24;6.50;;;5.90;;
6983;SDS011;3532;51.118;7.210;2023-04-05T11:55:49;6.50;;;5.87;;
6983;SDS011;3532;51.118;7.210;2023-04-05T11:58:20;6.47;;;5.63;;
6983;SDS011;3532;51.118;7.210;2023-04-05T12:00:49;7.07;;;5.77;;
6983;SDS011;3532;51.118;7.210;2023-04-05T12:03:24;7.87;;;5.20;;
6983;SDS011;3532;51.118;7.210;2023-04-05T12:05:53;6.33;;;5.57;;
6983;SDS011;3532;51.118;7.210;2023-04-05T12:08:19;6.60;;;6.00;;
6983;SDS011;3532;51.118;7.210;2023-04-05T12:10:57;7.43;;;5.80;;
6983;SDS011;3532;51.118;7.210;2023-04-05T12:13:28;7.07;;;6.10;;
6983;SDS011;3532;51.118;7.210;2023-04-05T12:15:56;6.57;;;5.50;;
6983;SDS011;3532;51.118;7.210;2023-04-05T12:18:25;6.00;;;5.50;;
6983;SDS011;3532;51.118;7.210;2023-04-05T12:20:52;8.63;;;5.93;;
6983;SDS011;3532;51.118;7.210;2023-04-05T12:23:18;7.30;;;6.13;;
6983;SDS011;3532;51.118;7.210;2023-04-05T12:25:50;6.33;;;5.40;;
6983;SDS011;3532;51.118;7.210;2023-04-05T12:28:17;8.47;;;5.93;;
6983;SDS011;3532;51.118;7.210;2023-04-05T12:30:52;6.50;;;5.57;;
6983;SDS011;3532;51.118;7.210;2023-04-05T12:33:27;6.73;;;5.27;;
6983;SDS011;3532;51.118;7.210;2023-04-05T12:35:54;6.30;;;5.70;;
6983;SDS011;3532;51.118;7.210;2023-04-05T12:38:19;6.43;;;5.30;;
6983;SDS011;3532;51.118;7.210;2023-04-05T12:40:44;6.17;;;5.57;;
6983;SDS011;3532;51.118;7.210;2023-04-05T12:43:10;7.30;;;5.53;;
6983;SDS011;3532;51.118;7.210;2023-04-05T12:45:36;6.60;;;5.90;;
6983;SDS011;3532;51.118;7.210;2023-04-05T12:48:18;5.93;;;5.43;;
6983;SDS011;3532;51.118;7.210;2023-04-05T12:50:47;6.20;;;5.60;;
6983;SDS011;3532;51.118;7.210;2023-04-05T12:53:16;6.60;;;5.93;;
6983;SDS011;3532;51.118;7.210;2023-04-05T12:55:52;6.27;;;5.67;;
6983;SDS011;3532;51.118;7.210;2023-04-05T12:58:19;6.00;;;5.30;;
6983;SDS011;3532;51.118;7.210;2023-04-05T13:00:57;6.20;;;5.60;;
6983;SDS011;3532;51.118;7.210;2023-04-05T13:03:24;6.20;;;5.57;;
6983;SDS011;3532;51.118;7.210;2023-04-05T13:05:50;5.93;;;5.43;;
6983;SDS011;3532;51.118;7.210;2023-04-05T13:08:15;7.50;;;5.20;;
6983;SDS011;3532;51.118;7.210;2023-04-05T13:10:47;6.23;;;5.63;;
6983;SDS011;3532;51.118;7.210;2023-04-05T13:13:14;7.63;;;6.20;;
6983;SDS011;3532;51.118;7.210;2023-04-05T13:15:40;6.77;;;5.40;;
6983;SDS011;3532;51.118;7.210;2023-04-05T13:18:05;6.13;;;5.07;;
6983;SDS011;3532;51.118;7.210;2023-04-05T13:20:31;6.60;;;6.03;;
6983;SDS011;3532;51.118;7.210;2023-04-05T13:22:56;6.00;;;5.40;;
6983;SDS011;3532;51.118;7.210;2023-04-05T13:25:22;6.03;;;5.50;;
6983;SDS011;3532;51.118;7.210;2023-04-05T13:27:47;6.87;;;6.20;;
6983;SDS011;3532;51.118;7.210;2023-04-05T13:30:13;6.17;;;5.67;;
6983;SDS011;3532;51.118;7.210;2023-04-05T13:32:38;10.20;;;6.43;;
6983;SDS011;3532;51.118;7.210;2023-04-05T13:35:04;6.03;;;5.43;;
6983;SDS011;3532;51.118;7.210;2023-04-05T13:37:30;6.63;;;5.77;;
6983;SDS011;3532;51.118;7.210;2023-04-05T13:39:55;7.97;;;6.10;;
6983;SDS011;3532;51.118;7.210;2023-04-05T13:42:21;6.47;;;5.73;;
6983;SDS011;3532;51.118;7.210;2023-04-05T13:44:47;6.27;;;5.67;;
6983;SDS011;3532;51.118;7.210;2023-04-05T13:47:12;6.27;;;5.50;;
6983;SDS011;3532;51.118;7.210;2023-04-05T13:49:39;7.17;;;5.40;;
6983;SDS011;3532;51.118;7.210;2023-04-05T13:52:04;6.50;;;4.83;;
6983;SDS011;3532;51.118;7.210;2023-04-05T13:54:31;6.17;;;5.57;;
6983;SDS011;3532;51.118;7.210;2023-04-05T13:56:56;5.90;;;5.30;;
6983;SDS011;3532;51.118;7.210;2023-04-05T13:59:23;6.67;;;6.07;;
6983;SDS011;3532;51.118;7.210;2023-04-05T14:01:48;9.23;;;6.50;;
6983;SDS011;3532;51.118;7.210;2023-04-05T14:04:14;7.80;;;5.60;;
6983;SDS011;3532;51.118;7.210;2023-04-05T14:06:40;8.33;;;6.10;;
6983;SDS011;3532;51.118;7.210;2023-04-05T14:09:05;6.63;;;5.93;;
6983;SDS011;3532;51.118;7.210;2023-04-05T14:11:31;6.43;;;5.83;;
6983;SDS011;3532;51.118;7.210;2023-04-05T14:13:56;7.50;;;5.83;;
6983;SDS011;3532;51.118;7.210;2023-04-05T14:16:22;7.73;;;7.03;;
6983;SDS011;3532;51.118;7.210;2023-04-05T14:18:47;8.13;;;6.43;;
6983;SDS011;3532;51.118;7.210;2023-04-05T14:21:12;7.27;;;6.33;;
6983;SDS011;3532;51.118;7.210;2023-04-05T14:23:38;6.20;;;5.60;;
6983;SDS011;3532;51.118;7.210;2023-04-05T14:26:03;7.43;;;5.93;;
6983;SDS011;3532;51.118;7.210;2023-04-05T14:28:29;7.13;;;5.67;;
6983;SDS011;3532;51.118;7.210;2023-04-05T14:30:54;6.73;;;6.03;;
6983;SDS011;3532;51.118;7.210;2023-04-05T14:33:20;8.17;;;5.93;;
6983;SDS011;3532;51.118;7.210;2023-04-05T14:35:45;7.37;;;5.70;;
6983;SDS011;3532;51.118;7.210;2023-04-05T14:38:10;7.00;;;6.40;;
6983;SDS011;3532;51.118;7.210;2023-04-05T14:40:36;6.73;;;6.13;;
6983;SDS011;3532;51.118;7.210;2023-04-05T14:43:01;6.33;;;5.73;;
6983;SDS011;3532;51.118;7.210;2023-04-05T14:45:27;6.70;;;6.07;;
6983;SDS011;3532;51.118;7.210;2023-04-05T14:47:53;8.30;;;6.07;;
6983;SDS011;3532;51.118;7.210;2023-04-05T14:50:19;6.03;;;5.53;;
6983;SDS011;3532;51.118;7.210;2023-04-05T14:52:44;7.90;;;6.03;;
6983;SDS011;3532;51.118;7.210;2023-04-05T14:55:10;6.43;;;5.83;;
6983;SDS011;3532;51.118;7.210;2023-04-05T14:57:39;6.50;;;5.93;;
6983;SDS011;3532;51.118;7.210;2023-04-05T15:00:05;6.00;;;5.40;;
6983;SDS011;3532;51.118;7.210;2023-04-05T15:02:31;6.37;;;5.77;;
6983;SDS011;3532;51.118;7.210;2023-04-05T15:04:57;7.17;;;5.73;;
6983;SDS011;3532;51.118;7.210;2023-04-05T15:07:24;6.40;;;5.80;;
6983;SDS011;3532;51.118;7.210;2023-04-05T15:09:50;6.70;;;6.10;;
6983;SDS011;3532;51.118;7.210;2023-04-05T15:12:15;9.20;;;6.20;;
6983;SDS011;3532;51.118;7.210;2023-04-05T15:14:41;6.87;;;5.97;;
6983;SDS011;3532;51.118;7.210;2023-04-05T15:17:06;7.60;;;6.03;;
6983;SDS011;3532;51.118;7.210;2023-04-05T15:19:31;7.67;;;6.90;;
6983;SDS011;3532;51.118;7.210;2023-04-05T15:21:57;8.87;;;6.33;;
6983;SDS011;3532;51.118;7.210;2023-04-05T15:24:22;7.20;;;6.07;;
6983;SDS011;3532;51.118;7.210;2023-04-05T15:26:47;6.67;;;5.80;;
6983;SDS011;3532;51.118;7.210;2023-04-05T15:29:13;7.00;;;6.30;;
6983;SDS011;3532;51.118;7.210;2023-04-05T15:31:38;7.37;;;6.67;;
6983;SDS011;3532;51.118;7.210;2023-04-05T15:34:05;6.77;;;6.10;;
6983;SDS011;3532;51.118;7.210;2023-04-05T15:36:30;6.93;;;6.33;;
6983;SDS011;3532;51.118;7.210;2023-04-05T15:38:55;7.17;;;6.57;;
6983;SDS011;3532;51.118;7.210;2023-04-05T15:41:21;6.93;;;6.10;;
6983;SDS011;3532;51.118;7.210;2023-04-05T15:43:46;7.80;;;7.00;;
6983;SDS011;3532;51.118;7.210;2023-04-05T15:46:11;6.23;;;5.73;;